createdAt,value
2017-12-04T00:00:44.460Z,3.56
2017-12-04T00:03:12.041Z,3.56
2017-12-04T00:05:39.687Z,3.61
2017-12-04T00:08:07.276Z,3.61
2017-12-04T00:10:34.856Z,3.60
2017-12-04T00:13:02.468Z,3.62
2017-12-04T00:15:30.048Z,3.67
2017-12-04T00:17:57.675Z,3.59
2017-12-04T00:20:25.264Z,3.60
2017-12-04T00:22:52.860Z,3.68
2017-12-04T00:25:20.468Z,3.70
2017-12-04T00:27:48.055Z,3.58
2017-12-04T00:30:15.719Z,3.63
2017-12-04T00:32:43.315Z,3.61
2017-12-04T00:35:11.322Z,3.66
2017-12-04T00:37:38.930Z,3.66
2017-12-04T00:40:06.856Z,3.69
2017-12-04T00:42:34.496Z,3.74
2017-12-04T00:45:02.189Z,3.70
2017-12-04T00:47:29.765Z,3.73
2017-12-04T00:49:57.376Z,3.75
2017-12-04T00:52:24.956Z,3.79
2017-12-04T00:54:52.583Z,3.81
2017-12-04T00:57:20.160Z,3.82
2017-12-04T00:59:47.757Z,3.84
2017-12-04T01:02:15.384Z,3.86
2017-12-04T01:04:42.979Z,3.87
2017-12-04T01:07:10.947Z,3.85
2017-12-04T01:09:38.553Z,3.84
2017-12-04T01:12:06.148Z,3.90
2017-12-04T01:14:33.775Z,3.94
2017-12-04T01:17:01.394Z,3.90
2017-12-04T01:19:29.360Z,3.92
2017-12-04T01:21:56.932Z,3.96
2017-12-04T01:24:24.515Z,3.93
2017-12-04T01:26:52.149Z,3.98
2017-12-04T01:29:20.015Z,3.98
2017-12-04T01:31:47.980Z,4.00
2017-12-04T01:34:15.561Z,3.98
2017-12-04T01:36:43.130Z,3.90
2017-12-04T01:39:11.073Z,3.92
2017-12-04T01:41:38.644Z,3.96
2017-12-04T01:44:06.252Z,3.99
2017-12-04T01:46:33.832Z,3.99
2017-12-04T01:49:01.421Z,4.00
2017-12-04T01:51:29.036Z,4.00
2017-12-04T01:53:56.647Z,4.08
2017-12-04T01:56:24.267Z,4.08
2017-12-04T01:58:51.859Z,3.96
2017-12-04T02:01:19.738Z,4.03
2017-12-04T02:03:47.347Z,4.05
2017-12-04T02:06:14.935Z,4.06
2017-12-04T02:08:42.551Z,4.04
2017-12-04T02:11:10.124Z,4.05
2017-12-04T02:13:37.747Z,4.07
2017-12-04T02:16:05.354Z,4.08
2017-12-04T02:18:33.277Z,4.05
2017-12-04T02:21:00.900Z,4.07
2017-12-04T02:23:28.492Z,4.08
2017-12-04T02:25:56.067Z,4.03
2017-12-04T02:28:23.679Z,4.02
2017-12-04T02:30:51.272Z,4.02
2017-12-04T02:33:18.911Z,4.07
2017-12-04T02:35:46.492Z,4.05
2017-12-04T02:38:14.072Z,4.08
2017-12-04T02:40:41.701Z,4.06
2017-12-04T02:43:09.304Z,4.08
2017-12-04T02:45:36.921Z,4.05
2017-12-04T02:48:04.493Z,4.07
2017-12-04T02:50:32.086Z,4.07
2017-12-04T02:52:59.703Z,4.01
2017-12-04T02:55:27.293Z,4.06
2017-12-04T02:57:54.933Z,4.12
2017-12-04T03:00:22.527Z,4.17
2017-12-04T03:02:50.106Z,4.08
2017-12-04T03:05:18.057Z,4.12
2017-12-04T03:07:45.640Z,4.16
2017-12-04T03:10:13.277Z,4.16
2017-12-04T03:12:40.861Z,4.20
2017-12-04T03:15:08.820Z,4.22
2017-12-04T03:17:36.448Z,4.21
2017-12-04T03:20:04.341Z,4.23
2017-12-04T03:22:31.938Z,4.26
2017-12-04T03:24:59.568Z,4.29
2017-12-04T03:27:27.175Z,4.29
2017-12-04T03:29:54.797Z,4.34
2017-12-04T03:32:22.454Z,4.34
2017-12-04T03:34:50.038Z,4.32
2017-12-04T03:37:17.625Z,4.32
2017-12-04T03:39:45.541Z,4.33
2017-12-04T03:42:13.131Z,4.35
2017-12-04T03:44:40.746Z,4.40
2017-12-04T03:47:08.347Z,4.38
2017-12-04T03:49:35.974Z,4.36
2017-12-04T03:52:03.858Z,4.38
2017-12-04T03:54:31.731Z,4.49
2017-12-04T03:56:59.369Z,4.46
2017-12-04T03:59:27.258Z,4.47
2017-12-04T04:01:54.852Z,4.49
2017-12-04T04:04:22.795Z,4.52
2017-12-04T04:06:50.395Z,4.54
2017-12-04T04:09:18.014Z,4.57
2017-12-04T04:11:45.609Z,4.49
2017-12-04T04:14:13.180Z,4.58
2017-12-04T04:16:41.118Z,4.61
2017-12-04T04:19:08.704Z,4.62
2017-12-04T04:21:36.331Z,4.62
2017-12-04T04:24:04.200Z,4.64
2017-12-04T04:26:31.792Z,4.69
2017-12-04T04:28:59.732Z,4.72
2017-12-04T04:31:27.319Z,4.71
2017-12-04T04:33:55.264Z,4.66
2017-12-04T04:36:22.860Z,4.68
2017-12-04T04:38:50.446Z,4.75
2017-12-04T04:41:18.158Z,4.81
2017-12-04T04:43:45.740Z,4.79
2017-12-04T04:46:13.371Z,4.76
2017-12-04T04:48:41.236Z,4.85
2017-12-04T04:51:08.856Z,4.87
2017-12-04T04:53:36.490Z,4.81
2017-12-04T04:56:04.083Z,4.85
2017-12-04T04:58:31.697Z,4.87
2017-12-04T05:00:59.303Z,4.83
2017-12-04T05:03:26.900Z,4.83
2017-12-04T05:05:54.510Z,4.87
2017-12-04T05:08:22.144Z,4.92
2017-12-04T05:10:49.807Z,4.97
2017-12-04T05:13:17.391Z,4.95
2017-12-04T05:15:45.004Z,4.96
2017-12-04T05:18:12.614Z,4.95
2017-12-04T05:20:40.227Z,4.93
2017-12-04T05:23:07.880Z,4.94
2017-12-04T05:25:35.449Z,4.93
2017-12-04T05:28:03.030Z,5.03
2017-12-04T05:30:30.718Z,4.99
2017-12-04T05:32:58.311Z,4.97
2017-12-04T05:35:25.959Z,5.00
2017-12-04T05:37:53.540Z,4.95
2017-12-04T05:40:21.142Z,5.00
2017-12-04T05:42:49.109Z,5.04
2017-12-04T05:45:16.981Z,5.05
2017-12-04T05:47:44.615Z,5.05
2017-12-04T05:50:12.240Z,5.08
2017-12-04T05:52:40.179Z,5.09
2017-12-04T05:55:08.152Z,5.07
2017-12-04T05:57:35.737Z,5.14
2017-12-04T06:00:03.376Z,5.11
2017-12-04T06:02:30.957Z,5.11
2017-12-04T06:04:58.600Z,5.02
2017-12-04T06:07:26.200Z,5.00
2017-12-04T06:09:53.797Z,5.00
2017-12-04T06:12:21.787Z,5.01
2017-12-04T06:14:49.377Z,5.04
2017-12-04T06:17:16.952Z,4.99
2017-12-04T06:19:44.592Z,5.03
2017-12-04T06:22:12.177Z,4.98
2017-12-04T06:24:39.852Z,4.95
2017-12-04T06:27:07.760Z,4.93
2017-12-04T06:29:35.383Z,4.97
2017-12-04T06:32:03.000Z,4.93
2017-12-04T06:34:30.599Z,4.91
2017-12-04T06:36:58.232Z,4.95
2017-12-04T06:39:25.860Z,4.96
2017-12-04T06:41:53.844Z,5.05
2017-12-04T06:44:21.711Z,5.04
2017-12-04T06:46:49.293Z,5.02
2017-12-04T06:49:16.915Z,5.04
2017-12-04T06:51:44.501Z,5.03
2017-12-04T06:54:12.105Z,5.01
2017-12-04T06:56:39.725Z,5.03
2017-12-04T06:59:07.324Z,5.02
2017-12-04T07:01:34.947Z,5.01
2017-12-04T07:04:02.564Z,5.05
2017-12-04T07:06:30.149Z,5.06
2017-12-04T07:08:57.775Z,5.03
2017-12-04T07:11:25.365Z,5.00
2017-12-04T07:13:53.267Z,5.04
2017-12-04T07:16:20.888Z,5.06
2017-12-04T07:18:48.630Z,5.03
2017-12-04T07:21:16.249Z,5.05
2017-12-04T07:23:43.875Z,5.06
2017-12-04T07:26:11.512Z,5.11
2017-12-04T07:28:39.094Z,5.08
2017-12-04T07:31:06.663Z,5.08
2017-12-04T07:33:34.293Z,5.11
2017-12-04T07:36:01.875Z,5.20
2017-12-04T07:38:29.496Z,5.21
2017-12-04T07:40:57.349Z,5.22
2017-12-04T07:43:24.966Z,5.17
2017-12-04T07:45:52.573Z,5.14
2017-12-04T07:48:20.188Z,5.19
2017-12-04T07:50:47.826Z,5.20
2017-12-04T07:53:15.674Z,5.17
2017-12-04T07:55:43.272Z,5.13
2017-12-04T07:58:10.892Z,5.21
2017-12-04T08:00:38.492Z,5.23
2017-12-04T08:03:06.140Z,5.25
2017-12-04T08:05:33.757Z,5.35
2017-12-04T08:08:01.360Z,5.46
2017-12-04T08:10:28.975Z,5.43
2017-12-04T08:12:56.565Z,5.46
2017-12-04T08:15:26.145Z,5.51
2017-12-04T08:17:53.747Z,5.53
2017-12-04T08:20:21.390Z,5.67
2017-12-04T08:22:49.018Z,5.62
2017-12-04T08:25:16.645Z,5.70
2017-12-04T08:27:44.289Z,5.68
2017-12-04T08:30:11.893Z,5.66
2017-12-04T08:32:39.493Z,5.67
2017-12-04T08:35:07.115Z,5.60
2017-12-04T08:37:34.772Z,5.49
2017-12-04T08:40:03.272Z,5.51
2017-12-04T08:42:30.896Z,5.45
2017-12-04T08:44:58.476Z,5.53
2017-12-04T08:47:26.114Z,5.60
2017-12-04T08:49:54.068Z,5.50
2017-12-04T08:52:21.752Z,5.62
2017-12-04T08:54:49.385Z,5.70
2017-12-04T08:57:17.006Z,5.86
2017-12-04T08:59:44.631Z,5.95
2017-12-04T09:02:12.524Z,6.00
2017-12-04T09:04:40.791Z,6.01
2017-12-04T09:07:08.368Z,6.05
2017-12-04T09:09:36.116Z,6.03
2017-12-04T09:12:03.723Z,6.10
2017-12-04T09:14:31.304Z,6.10
2017-12-04T09:16:58.983Z,6.12
2017-12-04T09:19:26.564Z,6.08
2017-12-04T09:21:54.147Z,6.10
2017-12-04T09:24:21.766Z,6.24
2017-12-04T09:26:49.349Z,6.22
2017-12-04T09:29:16.992Z,6.16
2017-12-04T09:31:45.476Z,6.22
2017-12-04T09:34:13.066Z,6.24
2017-12-04T09:36:40.699Z,6.23
2017-12-04T09:39:08.287Z,6.27
2017-12-04T09:41:35.940Z,6.27
2017-12-04T09:44:03.579Z,6.34
2017-12-04T09:46:31.156Z,6.30
2017-12-04T09:48:58.794Z,6.36
2017-12-04T09:51:26.464Z,6.34
2017-12-04T09:53:54.118Z,6.26
2017-12-04T09:56:21.688Z,6.33
2017-12-04T09:58:49.340Z,6.26
2017-12-04T10:01:17.010Z,6.00
2017-12-04T10:03:44.595Z,5.49
2017-12-04T10:06:12.227Z,5.03
2017-12-04T10:08:44.502Z,4.77
2017-12-04T10:11:12.078Z,4.38
2017-12-04T10:13:40.027Z,4.13
2017-12-04T10:16:07.668Z,4.02
2017-12-04T10:18:35.268Z,3.98
2017-12-04T10:21:02.849Z,3.98
2017-12-04T10:23:30.476Z,3.93
2017-12-04T10:25:58.049Z,4.01
2017-12-04T10:28:25.683Z,4.05
2017-12-04T10:30:53.298Z,4.12
2017-12-04T10:33:21.140Z,4.08
2017-12-04T10:35:48.775Z,4.12
2017-12-04T10:38:16.594Z,4.21
2017-12-04T10:40:44.190Z,4.32
2017-12-04T10:43:12.407Z,4.41
2017-12-04T10:45:40.024Z,4.43
2017-12-04T10:48:07.689Z,4.39
2017-12-04T10:50:35.451Z,4.39
2017-12-04T10:53:03.069Z,4.38
2017-12-04T10:55:30.726Z,4.38
2017-12-04T10:57:58.316Z,4.55
2017-12-04T11:00:30.146Z,4.59
2017-12-04T11:02:57.731Z,4.57
2017-12-04T11:05:25.778Z,4.66
2017-12-04T11:07:53.364Z,4.71
2017-12-04T11:10:20.943Z,4.71
2017-12-04T11:12:48.562Z,4.67
2017-12-04T11:15:16.149Z,4.73
2017-12-04T11:17:43.792Z,4.69
2017-12-04T11:20:11.653Z,4.72
2017-12-04T11:22:39.231Z,4.72
2017-12-04T11:25:06.855Z,4.78
2017-12-04T11:27:34.745Z,4.84
2017-12-04T11:30:02.361Z,4.86
2017-12-04T11:32:30.523Z,4.95
2017-12-04T11:34:58.117Z,5.05
2017-12-04T11:37:25.723Z,5.24
2017-12-04T11:39:53.296Z,5.48
2017-12-04T11:42:20.915Z,5.49
2017-12-04T11:44:48.847Z,5.46
2017-12-04T11:47:16.429Z,5.52
2017-12-04T11:49:44.054Z,5.57
2017-12-04T11:52:11.999Z,5.58
2017-12-04T11:54:39.763Z,5.52
2017-12-04T11:57:07.349Z,5.52
2017-12-04T11:59:35.206Z,5.61
2017-12-04T12:02:02.831Z,5.59
2017-12-04T12:04:30.713Z,5.63
2017-12-04T12:06:58.585Z,5.60
2017-12-04T12:09:26.448Z,5.59
2017-12-04T12:11:54.449Z,5.66
2017-12-04T12:14:22.147Z,5.63
2017-12-04T12:16:49.752Z,5.71
2017-12-04T12:19:17.372Z,5.87
2017-12-04T12:21:45.286Z,6.05
2017-12-04T12:24:13.256Z,6.35
2017-12-04T12:26:40.871Z,6.36
2017-12-04T12:29:08.525Z,6.42
2017-12-04T12:31:36.167Z,6.63
2017-12-04T12:34:03.752Z,6.62
2017-12-04T12:36:31.368Z,6.66
2017-12-04T12:38:58.992Z,6.51
2017-12-04T12:41:26.597Z,6.43
2017-12-04T12:43:54.227Z,6.23
2017-12-04T12:46:21.812Z,6.07
2017-12-04T12:48:49.400Z,5.96
2017-12-04T12:51:17.023Z,6.00
2017-12-04T12:53:44.900Z,5.93
2017-12-04T12:56:12.537Z,5.96
2017-12-04T12:58:40.124Z,6.03
2017-12-04T13:01:07.743Z,6.17
2017-12-04T13:03:35.353Z,6.38
2017-12-04T13:06:02.948Z,6.54
2017-12-04T13:08:30.573Z,6.50
2017-12-04T13:10:58.192Z,6.53
2017-12-04T13:13:25.789Z,6.49
2017-12-04T13:15:53.393Z,6.50
2017-12-04T13:18:21.010Z,6.60
2017-12-04T13:20:48.658Z,6.66
2017-12-04T13:23:16.320Z,6.62
2017-12-04T13:25:43.896Z,6.60
2017-12-04T13:28:11.747Z,6.58
2017-12-04T13:30:41.287Z,6.67
2017-12-04T13:33:20.687Z,6.59
2017-12-04T13:36:00.204Z,6.58
2017-12-04T13:38:28.135Z,6.42
2017-12-04T13:40:55.720Z,6.30
2017-12-04T13:43:23.296Z,6.22
2017-12-04T13:45:50.937Z,6.10
2017-12-04T13:48:18.517Z,6.02
2017-12-04T13:50:46.156Z,6.03
2017-12-04T13:53:13.745Z,6.04
2017-12-04T13:55:41.336Z,5.94
2017-12-04T13:58:08.956Z,5.84
2017-12-04T14:00:36.628Z,5.76
2017-12-04T14:03:04.298Z,5.75
2017-12-04T14:05:31.888Z,5.69
2017-12-04T14:07:59.469Z,5.68
2017-12-04T14:10:27.093Z,5.68
2017-12-04T14:12:54.669Z,5.69
2017-12-04T14:15:22.288Z,5.65
2017-12-04T14:17:50.229Z,5.64
2017-12-04T14:20:17.816Z,5.64
2017-12-04T14:22:45.441Z,5.61
2017-12-04T14:25:13.019Z,5.52
2017-12-04T14:27:40.695Z,5.50
2017-12-04T14:30:08.321Z,5.44
2017-12-04T14:32:35.915Z,5.34
2017-12-04T14:35:03.561Z,5.35
2017-12-04T14:37:31.425Z,5.25
2017-12-04T14:39:59.092Z,5.26
2017-12-04T14:42:26.690Z,5.18
2017-12-04T14:44:54.301Z,5.15
2017-12-04T14:47:21.931Z,5.22
2017-12-04T14:49:49.549Z,5.15
2017-12-04T14:52:17.235Z,5.16
2017-12-04T14:54:44.843Z,5.18
2017-12-04T14:57:12.785Z,5.13
2017-12-04T14:59:40.816Z,5.09
2017-12-04T15:02:08.446Z,5.10
2017-12-04T15:04:36.122Z,5.06
2017-12-04T15:07:03.711Z,5.04
2017-12-04T15:09:31.563Z,5.00
2017-12-04T15:11:59.171Z,5.01
2017-12-04T15:14:26.773Z,4.99
2017-12-04T15:16:54.424Z,4.96
2017-12-04T15:19:22.024Z,4.98
2017-12-04T15:21:50.179Z,4.96
2017-12-04T15:24:17.810Z,4.96
2017-12-04T15:26:45.414Z,4.93
2017-12-04T15:29:13.051Z,4.90
2017-12-04T15:31:40.641Z,4.91
2017-12-04T15:34:08.302Z,4.85
2017-12-04T15:36:35.973Z,4.85
2017-12-04T15:39:03.701Z,4.78
2017-12-04T15:41:31.351Z,4.81
2017-12-04T15:43:59.027Z,4.82
2017-12-04T15:46:26.669Z,4.81
2017-12-04T15:48:54.331Z,4.79
2017-12-04T15:51:21.937Z,4.78
2017-12-04T15:53:49.557Z,4.75
2017-12-04T15:56:17.155Z,4.73
2017-12-04T15:58:44.822Z,4.70
2017-12-04T16:01:12.437Z,4.70
2017-12-04T16:03:40.353Z,4.76
2017-12-04T16:06:07.965Z,4.71
2017-12-04T16:08:35.577Z,4.64
2017-12-04T16:11:03.442Z,4.58
2017-12-04T16:13:31.056Z,4.57
2017-12-04T16:15:58.771Z,4.58
2017-12-04T16:18:26.398Z,4.62
2017-12-04T16:20:54.053Z,4.62
2017-12-04T16:23:21.961Z,4.62
2017-12-04T16:25:49.570Z,4.61
2017-12-04T16:28:17.143Z,4.60
2017-12-04T16:30:44.727Z,4.59
2017-12-04T16:33:12.351Z,4.57
2017-12-04T16:35:39.934Z,4.53
2017-12-04T16:38:07.787Z,4.51
2017-12-04T16:40:35.421Z,4.50
2017-12-04T16:43:03.064Z,4.46
2017-12-04T16:45:30.677Z,4.46
2017-12-04T16:47:58.339Z,4.44
2017-12-04T16:50:26.364Z,4.41
2017-12-04T16:52:53.968Z,4.39
2017-12-04T16:55:21.569Z,4.40
2017-12-04T16:57:49.309Z,4.42
2017-12-04T17:00:16.904Z,4.38
2017-12-04T17:02:44.786Z,4.40
2017-12-04T17:05:12.388Z,4.44
2017-12-04T17:07:39.990Z,4.40
2017-12-04T17:10:07.605Z,4.37
2017-12-04T17:12:35.228Z,4.34
2017-12-04T17:15:02.856Z,4.32
2017-12-04T17:17:30.866Z,4.33
2017-12-04T17:19:58.441Z,4.34
2017-12-04T17:22:26.388Z,4.28
2017-12-04T17:24:53.975Z,4.28
2017-12-04T17:27:21.551Z,4.25
2017-12-04T17:29:49.164Z,4.23
2017-12-04T17:32:16.748Z,4.25
2017-12-04T17:34:44.374Z,4.26
2017-12-04T17:37:11.992Z,4.19
2017-12-04T17:39:39.582Z,4.16
2017-12-04T17:42:07.199Z,4.06
2017-12-04T17:44:34.786Z,4.06
2017-12-04T17:47:02.421Z,4.05
2017-12-04T17:49:30.007Z,4.02
2017-12-04T17:51:57.585Z,4.01
2017-12-04T17:54:25.201Z,4.01
2017-12-04T17:56:53.079Z,4.01
2017-12-04T17:59:23.237Z,4.00
2017-12-04T18:01:50.929Z,4.03
2017-12-04T18:04:18.517Z,4.04
2017-12-04T18:06:46.185Z,4.03
2017-12-04T18:09:13.780Z,4.01
2017-12-04T18:11:41.396Z,4.00
2017-12-04T18:14:08.980Z,3.99
2017-12-04T18:16:36.552Z,3.96
2017-12-04T18:19:04.188Z,3.97
2017-12-04T18:21:31.776Z,3.96
2017-12-04T18:23:59.407Z,3.97
2017-12-04T18:26:27.273Z,3.97
2017-12-04T18:28:54.935Z,3.97
2017-12-04T18:31:22.549Z,3.96
2017-12-04T18:33:50.148Z,3.98
2017-12-04T18:36:17.813Z,3.97
2017-12-04T18:38:45.401Z,3.93
2017-12-04T18:41:13.003Z,3.94
2017-12-04T18:43:40.618Z,3.91
2017-12-04T18:46:08.224Z,3.90
2017-12-04T18:48:35.837Z,3.95
2017-12-04T18:51:03.408Z,3.95
2017-12-04T18:53:30.997Z,3.95
2017-12-04T18:55:58.924Z,3.95
2017-12-04T18:58:26.509Z,3.90
2017-12-04T19:00:54.145Z,3.88
2017-12-04T19:03:21.810Z,3.87
2017-12-04T19:05:49.381Z,3.90
2017-12-04T19:08:17.008Z,3.92
2017-12-04T19:10:44.606Z,3.92
2017-12-04T19:13:12.233Z,3.90
2017-12-04T19:15:39.828Z,3.90
2017-12-04T19:18:07.435Z,3.87
2017-12-04T19:20:35.065Z,3.88
2017-12-04T19:23:02.655Z,3.80
2017-12-04T19:25:30.285Z,3.82
2017-12-04T19:27:57.874Z,3.73
2017-12-04T19:30:25.459Z,3.75
2017-12-04T19:32:53.136Z,3.81
2017-12-04T19:35:20.729Z,3.85
2017-12-04T19:37:48.786Z,3.74
2017-12-04T19:40:16.429Z,3.73
2017-12-04T19:42:44.032Z,3.70
2017-12-04T19:45:11.637Z,3.78
2017-12-04T19:47:39.533Z,3.72
2017-12-04T19:50:07.276Z,3.74
2017-12-04T19:52:35.000Z,3.72
2017-12-04T19:55:02.714Z,3.65
2017-12-04T19:57:30.472Z,3.71
2017-12-04T19:59:58.085Z,3.66
2017-12-04T20:02:26.258Z,3.59
2017-12-04T20:04:54.064Z,3.64
2017-12-04T20:07:21.650Z,3.61
2017-12-04T20:09:49.286Z,3.58
2017-12-04T20:12:16.864Z,3.64
2017-12-04T20:14:44.507Z,3.65
2017-12-04T20:17:12.196Z,3.67
2017-12-04T20:19:40.194Z,3.62
2017-12-04T20:22:07.823Z,3.62
2017-12-04T20:24:35.416Z,3.65
2017-12-04T20:27:03.046Z,3.60
2017-12-04T20:29:30.660Z,3.60
2017-12-04T20:31:58.271Z,3.62
2017-12-04T20:34:25.915Z,3.58
2017-12-04T20:36:53.508Z,3.59
2017-12-04T20:39:21.140Z,3.60
2017-12-04T20:41:48.737Z,3.53
2017-12-04T20:44:16.355Z,3.53
2017-12-04T20:46:44.022Z,3.54
2017-12-04T20:49:11.693Z,3.55
2017-12-04T20:51:39.394Z,3.55
2017-12-04T20:54:07.017Z,3.52
2017-12-04T20:56:34.852Z,3.55
2017-12-04T20:59:02.460Z,3.60
2017-12-04T21:01:30.083Z,3.61
2017-12-04T21:03:57.731Z,3.66
2017-12-04T21:06:25.324Z,3.62
2017-12-04T21:09:04.856Z,3.66
2017-12-04T21:11:44.182Z,3.59
2017-12-04T21:17:25.900Z,3.58
2017-12-04T21:19:53.539Z,3.47
2017-12-04T21:22:21.139Z,3.48
2017-12-04T21:24:48.820Z,3.48
2017-12-04T21:27:16.445Z,3.54
2017-12-04T21:29:45.100Z,3.50
2017-12-04T21:32:12.728Z,3.56
2017-12-04T21:34:40.364Z,3.51
2017-12-04T21:37:07.953Z,3.51
2017-12-04T21:39:35.645Z,3.51
2017-12-04T21:42:03.467Z,3.51
2017-12-04T21:44:31.384Z,3.54
2017-12-04T21:46:58.964Z,3.53
2017-12-04T21:49:26.545Z,3.58
2017-12-04T21:51:54.169Z,3.61
2017-12-04T21:54:22.050Z,3.64
2017-12-04T21:56:49.680Z,3.64
2017-12-04T21:59:17.256Z,3.72
2017-12-04T22:01:44.847Z,3.68
2017-12-04T22:04:12.456Z,3.68
2017-12-04T22:06:40.229Z,3.70
2017-12-04T22:09:07.852Z,3.74
2017-12-04T22:11:35.484Z,3.75
2017-12-04T22:14:03.213Z,3.71
2017-12-04T22:16:31.427Z,3.70
2017-12-04T22:18:59.029Z,3.68
2017-12-04T22:21:26.676Z,3.68
2017-12-04T22:23:54.283Z,3.68
2017-12-04T22:26:22.320Z,3.66
2017-12-04T22:28:49.916Z,3.60
2017-12-04T22:31:17.520Z,3.61
2017-12-04T22:33:45.135Z,3.68
2017-12-04T22:36:12.827Z,3.65
2017-12-04T22:38:40.438Z,3.63
2017-12-04T22:41:08.063Z,3.59
2017-12-04T22:43:35.913Z,3.63
2017-12-04T22:46:03.596Z,3.59
2017-12-04T22:48:31.176Z,3.63
2017-12-04T22:50:58.802Z,3.62
2017-12-04T22:53:26.392Z,3.66
2017-12-04T22:55:54.389Z,3.62
2017-12-04T22:58:22.009Z,3.66
2017-12-04T23:00:49.589Z,3.61
2017-12-04T23:03:17.214Z,3.58
2017-12-04T23:05:45.197Z,3.59
2017-12-04T23:08:13.063Z,3.60
2017-12-04T23:10:40.647Z,3.62
2017-12-04T23:13:08.282Z,3.60
2017-12-04T23:15:35.912Z,3.59
2017-12-04T23:18:03.778Z,3.58
2017-12-04T23:20:31.376Z,3.66
2017-12-04T23:22:58.963Z,3.65
2017-12-04T23:25:26.605Z,3.68
2017-12-04T23:27:54.205Z,3.68
2017-12-04T23:30:22.925Z,3.70
2017-12-04T23:32:50.503Z,3.73
2017-12-04T23:35:18.109Z,3.74
2017-12-04T23:37:45.728Z,3.75
2017-12-04T23:40:13.335Z,3.81
2017-12-04T23:42:40.988Z,3.86
2017-12-04T23:45:08.574Z,3.85
2017-12-04T23:47:36.170Z,3.91
2017-12-04T23:50:03.797Z,3.96
2017-12-04T23:52:31.408Z,3.99
2017-12-04T23:54:59.051Z,4.02
2017-12-04T23:57:26.936Z,4.02
2017-12-04T23:59:54.524Z,4.05
